sensor_id;sensor_type;location;lat;lon;timestamp;temperature;humidity
64226;DHT22;50545;56.064;26.178;2024-01-25T00:00:21;3.10;99.90
64226;DHT22;50545;56.064;26.178;2024-01-25T00:02:51;3.10;99.90
64226;DHT22;50545;56.064;26.178;2024-01-25T00:05:18;3.10;99.90
64226;DHT22;50545;56.064;26.178;2024-01-25T00:07:47;3.10;99.90
64226;DHT22;50545;56.064;26.178;2024-01-25T00:10:17;3.10;99.90
64226;DHT22;50545;56.064;26.178;2024-01-25T00:12:45;3.10;99.90
64226;DHT22;50545;56.064;26.178;2024-01-25T00:15:13;3.10;99.90
64226;DHT22;50545;56.064;26.178;2024-01-25T00:17:41;3.00;99.90
64226;DHT22;50545;56.064;26.178;2024-01-25T00:20:10;3.00;99.90
64226;DHT22;50545;56.064;26.178;2024-01-25T00:22:40;3.00;99.90
64226;DHT22;50545;56.064;26.178;2024-01-25T00:25:08;3.00;99.90
64226;DHT22;50545;56.064;26.178;2024-01-25T00:27:36;2.90;99.90
64226;DHT22;50545;56.064;26.178;2024-01-25T00:30:04;3.00;99.90
64226;DHT22;50545;56.064;26.178;2024-01-25T00:32:32;2.90;99.90
64226;DHT22;50545;56.064;26.178;2024-01-25T00:35:00;2.90;99.90
64226;DHT22;50545;56.064;26.178;2024-01-25T00:37:28;2.90;99.90
64226;DHT22;50545;56.064;26.178;2024-01-25T00:39:56;2.90;99.90
64226;DHT22;50545;56.064;26.178;2024-01-25T00:42:24;2.90;99.90
64226;DHT22;50545;56.064;26.178;2024-01-25T00:44:51;2.90;99.90
64226;DHT22;50545;56.064;26.178;2024-01-25T00:47:20;2.90;99.90
64226;DHT22;50545;56.064;26.178;2024-01-25T00:49:48;2.90;99.90
64226;DHT22;50545;56.064;26.178;2024-01-25T00:52:16;2.90;99.90
64226;DHT22;50545;56.064;26.178;2024-01-25T00:54:44;3.00;99.90
64226;DHT22;50545;56.064;26.178;2024-01-25T00:57:12;2.90;99.90
64226;DHT22;50545;56.064;26.178;2024-01-25T00:59:39;2.90;99.90
64226;DHT22;50545;56.064;26.178;2024-01-25T01:02:12;2.90;99.90
64226;DHT22;50545;56.064;26.178;2024-01-25T01:04:41;2.90;99.90
64226;DHT22;50545;56.064;26.178;2024-01-25T01:07:15;2.90;99.90
64226;DHT22;50545;56.064;26.178;2024-01-25T01:09:43;2.90;99.90
64226;DHT22;50545;56.064;26.178;2024-01-25T01:12:10;2.90;99.90
64226;DHT22;50545;56.064;26.178;2024-01-25T01:14:38;2.80;99.90
64226;DHT22;50545;56.064;26.178;2024-01-25T01:17:05;2.80;99.90
64226;DHT22;50545;56.064;26.178;2024-01-25T01:19:33;2.80;99.90
64226;DHT22;50545;56.064;26.178;2024-01-25T01:22:00;2.80;99.90
64226;DHT22;50545;56.064;26.178;2024-01-25T01:24:28;2.80;99.90
64226;DHT22;50545;56.064;26.178;2024-01-25T01:26:56;2.80;99.90
64226;DHT22;50545;56.064;26.178;2024-01-25T01:29:23;2.80;99.90
64226;DHT22;50545;56.064;26.178;2024-01-25T01:31:51;2.80;99.90
64226;DHT22;50545;56.064;26.178;2024-01-25T01:34:18;2.70;99.90
64226;DHT22;50545;56.064;26.178;2024-01-25T01:36:46;2.70;99.90
64226;DHT22;50545;56.064;26.178;2024-01-25T01:39:13;2.70;99.90
64226;DHT22;50545;56.064;26.178;2024-01-25T01:41:41;2.70;99.90
64226;DHT22;50545;56.064;26.178;2024-01-25T01:44:08;2.70;99.90
64226;DHT22;50545;56.064;26.178;2024-01-25T01:46:37;2.70;99.90
64226;DHT22;50545;56.064;26.178;2024-01-25T01:49:09;2.70;99.90
64226;DHT22;50545;56.064;26.178;2024-01-25T01:51:39;2.70;99.90
64226;DHT22;50545;56.064;26.178;2024-01-25T01:54:07;2.70;99.90
64226;DHT22;50545;56.064;26.178;2024-01-25T01:56:35;2.70;99.90
64226;DHT22;50545;56.064;26.178;2024-01-25T01:59:05;2.70;99.90
64226;DHT22;50545;56.064;26.178;2024-01-25T02:01:32;2.70;99.90
64226;DHT22;50545;56.064;26.178;2024-01-25T02:04:00;2.70;99.90
64226;DHT22;50545;56.064;26.178;2024-01-25T02:06:28;2.70;99.90
64226;DHT22;50545;56.064;26.178;2024-01-25T02:08:56;2.70;99.90
64226;DHT22;50545;56.064;26.178;2024-01-25T02:11:26;2.60;99.90
64226;DHT22;50545;56.064;26.178;2024-01-25T02:13:53;2.70;99.90
64226;DHT22;50545;56.064;26.178;2024-01-25T02:16:21;2.70;99.90
64226;DHT22;50545;56.064;26.178;2024-01-25T02:18:49;2.70;99.90
64226;DHT22;50545;56.064;26.178;2024-01-25T02:21:17;2.70;99.90
64226;DHT22;50545;56.064;26.178;2024-01-25T02:23:44;2.60;99.90
64226;DHT22;50545;56.064;26.178;2024-01-25T02:26:13;2.60;99.90
64226;DHT22;50545;56.064;26.178;2024-01-25T02:28:40;2.60;99.90
64226;DHT22;50545;56.064;26.178;2024-01-25T02:31:08;2.60;99.90
64226;DHT22;50545;56.064;26.178;2024-01-25T02:33:35;2.60;99.90
64226;DHT22;50545;56.064;26.178;2024-01-25T02:36:03;2.60;99.90
64226;DHT22;50545;56.064;26.178;2024-01-25T02:38:31;2.60;99.90
64226;DHT22;50545;56.064;26.178;2024-01-25T02:40:58;2.60;99.90
64226;DHT22;50545;56.064;26.178;2024-01-25T02:43:26;2.50;99.90
64226;DHT22;50545;56.064;26.178;2024-01-25T02:45:54;2.60;99.90
64226;DHT22;50545;56.064;26.178;2024-01-25T02:48:21;2.60;99.90
64226;DHT22;50545;56.064;26.178;2024-01-25T02:50:49;2.60;99.90
64226;DHT22;50545;56.064;26.178;2024-01-25T02:53:17;2.60;99.90
64226;DHT22;50545;56.064;26.178;2024-01-25T02:55:44;2.60;99.90
64226;DHT22;50545;56.064;26.178;2024-01-25T02:58:12;2.60;99.90
64226;DHT22;50545;56.064;26.178;2024-01-25T03:00:39;2.60;99.90
64226;DHT22;50545;56.064;26.178;2024-01-25T03:03:08;2.60;99.90
64226;DHT22;50545;56.064;26.178;2024-01-25T03:05:35;2.50;99.90
64226;DHT22;50545;56.064;26.178;2024-01-25T03:08:04;2.50;99.90
64226;DHT22;50545;56.064;26.178;2024-01-25T03:10:31;2.60;99.90
64226;DHT22;50545;56.064;26.178;2024-01-25T03:12:59;2.60;99.90
64226;DHT22;50545;56.064;26.178;2024-01-25T03:15:26;2.60;99.90
64226;DHT22;50545;56.064;26.178;2024-01-25T03:17:54;2.50;99.90
64226;DHT22;50545;56.064;26.178;2024-01-25T03:20:21;2.50;99.90
64226;DHT22;50545;56.064;26.178;2024-01-25T03:22:49;2.50;99.90
64226;DHT22;50545;56.064;26.178;2024-01-25T03:25:17;2.50;99.90
64226;DHT22;50545;56.064;26.178;2024-01-25T03:27:45;2.50;99.90
64226;DHT22;50545;56.064;26.178;2024-01-25T03:30:12;2.50;99.90
64226;DHT22;50545;56.064;26.178;2024-01-25T03:32:40;2.50;99.90
64226;DHT22;50545;56.064;26.178;2024-01-25T03:35:08;2.50;99.90
64226;DHT22;50545;56.064;26.178;2024-01-25T03:37:35;2.50;99.90
64226;DHT22;50545;56.064;26.178;2024-01-25T03:40:04;2.50;99.90
64226;DHT22;50545;56.064;26.178;2024-01-25T03:42:32;2.50;99.90
64226;DHT22;50545;56.064;26.178;2024-01-25T03:45:00;2.50;99.90
64226;DHT22;50545;56.064;26.178;2024-01-25T03:47:27;2.50;99.90
64226;DHT22;50545;56.064;26.178;2024-01-25T03:49:55;2.50;99.90
64226;DHT22;50545;56.064;26.178;2024-01-25T03:52:22;2.50;99.90
64226;DHT22;50545;56.064;26.178;2024-01-25T03:54:50;2.50;99.90
64226;DHT22;50545;56.064;26.178;2024-01-25T03:57:18;2.50;99.90
64226;DHT22;50545;56.064;26.178;2024-01-25T03:59:45;2.60;99.90
64226;DHT22;50545;56.064;26.178;2024-01-25T04:02:13;2.50;99.90
64226;DHT22;50545;56.064;26.178;2024-01-25T04:04:41;2.60;99.90
64226;DHT22;50545;56.064;26.178;2024-01-25T04:07:08;2.60;99.90
64226;DHT22;50545;56.064;26.178;2024-01-25T04:09:36;2.60;99.90
64226;DHT22;50545;56.064;26.178;2024-01-25T04:12:03;2.60;99.90
64226;DHT22;50545;56.064;26.178;2024-01-25T04:14:31;2.60;99.90
64226;DHT22;50545;56.064;26.178;2024-01-25T04:16:58;2.50;99.90
64226;DHT22;50545;56.064;26.178;2024-01-25T04:19:26;2.50;99.90
64226;DHT22;50545;56.064;26.178;2024-01-25T04:21:54;2.50;99.90
64226;DHT22;50545;56.064;26.178;2024-01-25T04:24:21;2.50;99.90
64226;DHT22;50545;56.064;26.178;2024-01-25T04:26:49;2.50;99.90
64226;DHT22;50545;56.064;26.178;2024-01-25T04:29:17;2.50;99.90
64226;DHT22;50545;56.064;26.178;2024-01-25T04:31:45;2.50;99.90
64226;DHT22;50545;56.064;26.178;2024-01-25T04:34:13;2.50;99.90
64226;DHT22;50545;56.064;26.178;2024-01-25T04:36:42;2.50;99.90
64226;DHT22;50545;56.064;26.178;2024-01-25T04:39:10;2.50;99.90
64226;DHT22;50545;56.064;26.178;2024-01-25T04:41:38;2.50;99.90
64226;DHT22;50545;56.064;26.178;2024-01-25T04:44:05;2.40;99.90
64226;DHT22;50545;56.064;26.178;2024-01-25T04:46:33;2.40;99.90
64226;DHT22;50545;56.064;26.178;2024-01-25T04:49:03;2.40;99.90
64226;DHT22;50545;56.064;26.178;2024-01-25T04:51:31;2.40;99.90
64226;DHT22;50545;56.064;26.178;2024-01-25T04:53:59;2.40;99.90
64226;DHT22;50545;56.064;26.178;2024-01-25T04:56:27;2.30;99.90
64226;DHT22;50545;56.064;26.178;2024-01-25T04:58:54;2.30;99.90
64226;DHT22;50545;56.064;26.178;2024-01-25T05:01:22;2.30;99.90
64226;DHT22;50545;56.064;26.178;2024-01-25T05:03:49;2.30;99.90
64226;DHT22;50545;56.064;26.178;2024-01-25T05:06:17;2.30;99.90
64226;DHT22;50545;56.064;26.178;2024-01-25T05:08:44;2.30;99.90
64226;DHT22;50545;56.064;26.178;2024-01-25T05:11:12;2.30;99.90
64226;DHT22;50545;56.064;26.178;2024-01-25T05:13:39;2.30;99.90
64226;DHT22;50545;56.064;26.178;2024-01-25T05:16:07;2.30;99.90
64226;DHT22;50545;56.064;26.178;2024-01-25T05:18:34;2.30;99.90
64226;DHT22;50545;56.064;26.178;2024-01-25T05:21:02;2.30;99.90
64226;DHT22;50545;56.064;26.178;2024-01-25T05:23:30;2.20;99.90
64226;DHT22;50545;56.064;26.178;2024-01-25T05:25:57;2.20;99.90
64226;DHT22;50545;56.064;26.178;2024-01-25T05:28:24;2.20;99.90
64226;DHT22;50545;56.064;26.178;2024-01-25T05:30:52;2.20;99.90
64226;DHT22;50545;56.064;26.178;2024-01-25T05:33:20;2.20;99.90
64226;DHT22;50545;56.064;26.178;2024-01-25T05:35:47;2.20;99.90
64226;DHT22;50545;56.064;26.178;2024-01-25T05:38:15;2.10;99.90
64226;DHT22;50545;56.064;26.178;2024-01-25T05:40:43;2.10;99.90
64226;DHT22;50545;56.064;26.178;2024-01-25T05:43:11;2.10;99.90
64226;DHT22;50545;56.064;26.178;2024-01-25T05:45:39;2.10;99.90
64226;DHT22;50545;56.064;26.178;2024-01-25T05:48:06;2.00;99.90
64226;DHT22;50545;56.064;26.178;2024-01-25T05:50:34;2.00;99.90
64226;DHT22;50545;56.064;26.178;2024-01-25T05:53:02;2.00;99.90
64226;DHT22;50545;56.064;26.178;2024-01-25T05:55:29;2.00;99.90
64226;DHT22;50545;56.064;26.178;2024-01-25T05:57:57;2.00;99.90
64226;DHT22;50545;56.064;26.178;2024-01-25T06:00:24;2.00;99.90
64226;DHT22;50545;56.064;26.178;2024-01-25T06:02:53;2.00;99.90
64226;DHT22;50545;56.064;26.178;2024-01-25T06:05:20;2.00;99.90
64226;DHT22;50545;56.064;26.178;2024-01-25T06:07:48;2.00;99.90
64226;DHT22;50545;56.064;26.178;2024-01-25T06:10:17;2.00;99.90
64226;DHT22;50545;56.064;26.178;2024-01-25T06:12:45;2.00;99.90
64226;DHT22;50545;56.064;26.178;2024-01-25T06:15:13;2.00;99.90
64226;DHT22;50545;56.064;26.178;2024-01-25T06:17:40;2.00;99.90
64226;DHT22;50545;56.064;26.178;2024-01-25T06:20:08;2.00;99.90
64226;DHT22;50545;56.064;26.178;2024-01-25T06:22:37;2.00;99.90
64226;DHT22;50545;56.064;26.178;2024-01-25T06:25:05;2.00;99.90
64226;DHT22;50545;56.064;26.178;2024-01-25T06:27:35;2.00;99.90
64226;DHT22;50545;56.064;26.178;2024-01-25T06:30:02;2.00;99.90
64226;DHT22;50545;56.064;26.178;2024-01-25T06:32:30;2.10;99.90
64226;DHT22;50545;56.064;26.178;2024-01-25T06:34:58;2.00;99.90
64226;DHT22;50545;56.064;26.178;2024-01-25T06:37:26;2.10;99.90
64226;DHT22;50545;56.064;26.178;2024-01-25T06:39:54;2.10;99.90
64226;DHT22;50545;56.064;26.178;2024-01-25T06:42:21;2.00;99.90
64226;DHT22;50545;56.064;26.178;2024-01-25T06:44:50;2.10;99.90
64226;DHT22;50545;56.064;26.178;2024-01-25T06:47:17;2.10;99.90
64226;DHT22;50545;56.064;26.178;2024-01-25T06:49:47;2.10;99.90
64226;DHT22;50545;56.064;26.178;2024-01-25T06:52:19;2.10;99.90
64226;DHT22;50545;56.064;26.178;2024-01-25T06:54:47;2.10;99.90
64226;DHT22;50545;56.064;26.178;2024-01-25T06:57:14;2.10;99.90
64226;DHT22;50545;56.064;26.178;2024-01-25T06:59:42;2.10;99.90
64226;DHT22;50545;56.064;26.178;2024-01-25T07:02:09;2.10;99.90
64226;DHT22;50545;56.064;26.178;2024-01-25T07:04:38;2.10;99.90
64226;DHT22;50545;56.064;26.178;2024-01-25T07:07:09;2.10;99.90
64226;DHT22;50545;56.064;26.178;2024-01-25T07:09:36;2.10;99.90
64226;DHT22;50545;56.064;26.178;2024-01-25T07:12:04;2.10;99.90
64226;DHT22;50545;56.064;26.178;2024-01-25T07:14:32;2.10;99.90
64226;DHT22;50545;56.064;26.178;2024-01-25T07:16:59;2.10;99.90
64226;DHT22;50545;56.064;26.178;2024-01-25T07:19:27;2.10;99.90
64226;DHT22;50545;56.064;26.178;2024-01-25T07:21:55;2.20;99.90
64226;DHT22;50545;56.064;26.178;2024-01-25T07:24:22;2.20;99.90
64226;DHT22;50545;56.064;26.178;2024-01-25T07:26:50;2.20;99.90
64226;DHT22;50545;56.064;26.178;2024-01-25T07:29:20;2.20;99.90
64226;DHT22;50545;56.064;26.178;2024-01-25T07:31:48;2.20;99.90
64226;DHT22;50545;56.064;26.178;2024-01-25T07:34:16;2.30;99.90
64226;DHT22;50545;56.064;26.178;2024-01-25T07:36:44;2.20;99.90
64226;DHT22;50545;56.064;26.178;2024-01-25T07:39:11;2.20;99.90
64226;DHT22;50545;56.064;26.178;2024-01-25T07:41:39;2.20;99.90
64226;DHT22;50545;56.064;26.178;2024-01-25T07:44:06;2.20;99.90
64226;DHT22;50545;56.064;26.178;2024-01-25T07:46:34;2.20;99.90
64226;DHT22;50545;56.064;26.178;2024-01-25T07:49:01;2.20;99.90
64226;DHT22;50545;56.064;26.178;2024-01-25T07:51:29;2.10;99.90
64226;DHT22;50545;56.064;26.178;2024-01-25T07:53:57;2.10;99.90
64226;DHT22;50545;56.064;26.178;2024-01-25T07:56:24;2.10;99.90
64226;DHT22;50545;56.064;26.178;2024-01-25T07:58:52;2.10;99.90
64226;DHT22;50545;56.064;26.178;2024-01-25T08:01:20;2.10;99.90
64226;DHT22;50545;56.064;26.178;2024-01-25T08:03:48;2.10;99.90
64226;DHT22;50545;56.064;26.178;2024-01-25T08:06:16;2.10;99.90
64226;DHT22;50545;56.064;26.178;2024-01-25T08:08:43;2.10;99.90
64226;DHT22;50545;56.064;26.178;2024-01-25T08:11:11;2.10;99.90
64226;DHT22;50545;56.064;26.178;2024-01-25T08:13:38;2.10;99.90
64226;DHT22;50545;56.064;26.178;2024-01-25T08:16:09;2.10;99.90
64226;DHT22;50545;56.064;26.178;2024-01-25T08:18:38;2.10;99.90
64226;DHT22;50545;56.064;26.178;2024-01-25T08:21:06;2.10;99.90
64226;DHT22;50545;56.064;26.178;2024-01-25T08:23:33;2.10;99.90
64226;DHT22;50545;56.064;26.178;2024-01-25T08:26:01;2.10;99.90
64226;DHT22;50545;56.064;26.178;2024-01-25T08:28:28;2.10;99.90
64226;DHT22;50545;56.064;26.178;2024-01-25T08:30:56;2.10;99.90
64226;DHT22;50545;56.064;26.178;2024-01-25T08:33:24;2.20;99.90
64226;DHT22;50545;56.064;26.178;2024-01-25T08:35:52;2.20;99.90
64226;DHT22;50545;56.064;26.178;2024-01-25T08:38:20;2.20;99.90
64226;DHT22;50545;56.064;26.178;2024-01-25T08:40:47;2.20;99.90
64226;DHT22;50545;56.064;26.178;2024-01-25T08:43:15;2.20;99.90
64226;DHT22;50545;56.064;26.178;2024-01-25T08:45:43;2.20;99.90
64226;DHT22;50545;56.064;26.178;2024-01-25T08:48:11;2.20;99.90
64226;DHT22;50545;56.064;26.178;2024-01-25T08:50:40;2.20;99.90
64226;DHT22;50545;56.064;26.178;2024-01-25T08:53:08;2.20;99.90
64226;DHT22;50545;56.064;26.178;2024-01-25T08:55:35;2.10;99.90
64226;DHT22;50545;56.064;26.178;2024-01-25T08:58:03;2.20;99.90
64226;DHT22;50545;56.064;26.178;2024-01-25T09:00:30;2.10;99.90
64226;DHT22;50545;56.064;26.178;2024-01-25T09:02:58;2.10;99.90
64226;DHT22;50545;56.064;26.178;2024-01-25T09:05:26;2.10;99.90
64226;DHT22;50545;56.064;26.178;2024-01-25T09:07:55;2.10;99.90
64226;DHT22;50545;56.064;26.178;2024-01-25T09:10:23;2.10;99.90
64226;DHT22;50545;56.064;26.178;2024-01-25T09:12:51;2.10;99.90
64226;DHT22;50545;56.064;26.178;2024-01-25T09:15:19;2.10;99.90
64226;DHT22;50545;56.064;26.178;2024-01-25T09:17:46;2.10;99.90
64226;DHT22;50545;56.064;26.178;2024-01-25T09:20:14;2.10;99.90
64226;DHT22;50545;56.064;26.178;2024-01-25T09:22:42;2.10;99.90
64226;DHT22;50545;56.064;26.178;2024-01-25T09:25:10;2.10;99.90
64226;DHT22;50545;56.064;26.178;2024-01-25T09:27:38;2.20;99.90
64226;DHT22;50545;56.064;26.178;2024-01-25T09:30:06;2.20;99.90
64226;DHT22;50545;56.064;26.178;2024-01-25T09:32:34;2.20;99.90
64226;DHT22;50545;56.064;26.178;2024-01-25T09:35:02;2.20;99.90
64226;DHT22;50545;56.064;26.178;2024-01-25T09:37:30;2.20;99.90
64226;DHT22;50545;56.064;26.178;2024-01-25T09:39:57;2.30;99.90
64226;DHT22;50545;56.064;26.178;2024-01-25T09:42:28;2.20;99.90
64226;DHT22;50545;56.064;26.178;2024-01-25T09:44:56;2.30;99.90
64226;DHT22;50545;56.064;26.178;2024-01-25T09:47:23;2.30;99.90
64226;DHT22;50545;56.064;26.178;2024-01-25T09:49:51;2.30;99.90
64226;DHT22;50545;56.064;26.178;2024-01-25T09:52:19;2.30;99.90
64226;DHT22;50545;56.064;26.178;2024-01-25T09:54:53;2.30;99.90
64226;DHT22;50545;56.064;26.178;2024-01-25T09:57:24;2.30;99.90
64226;DHT22;50545;56.064;26.178;2024-01-25T09:59:55;2.30;99.90
64226;DHT22;50545;56.064;26.178;2024-01-25T10:02:22;2.30;99.90
64226;DHT22;50545;56.064;26.178;2024-01-25T10:04:51;2.40;99.90
64226;DHT22;50545;56.064;26.178;2024-01-25T10:07:44;2.40;99.90
64226;DHT22;50545;56.064;26.178;2024-01-25T10:10:13;2.40;99.90
64226;DHT22;50545;56.064;26.178;2024-01-25T10:12:42;2.40;99.90
64226;DHT22;50545;56.064;26.178;2024-01-25T10:15:10;2.40;99.90
64226;DHT22;50545;56.064;26.178;2024-01-25T10:17:39;2.40;99.90
64226;DHT22;50545;56.064;26.178;2024-01-25T10:20:26;2.40;99.90
64226;DHT22;50545;56.064;26.178;2024-01-25T10:22:58;2.40;99.90
64226;DHT22;50545;56.064;26.178;2024-01-25T10:25:27;2.40;99.90
64226;DHT22;50545;56.064;26.178;2024-01-25T10:27:56;2.40;99.90
64226;DHT22;50545;56.064;26.178;2024-01-25T10:30:24;2.40;99.90
64226;DHT22;50545;56.064;26.178;2024-01-25T10:32:53;2.40;99.90
64226;DHT22;50545;56.064;26.178;2024-01-25T10:35:21;2.40;99.90
64226;DHT22;50545;56.064;26.178;2024-01-25T10:37:52;2.40;99.90
64226;DHT22;50545;56.064;26.178;2024-01-25T10:40:20;2.40;99.90
64226;DHT22;50545;56.064;26.178;2024-01-25T10:42:49;2.40;99.90
64226;DHT22;50545;56.064;26.178;2024-01-25T10:45:19;2.40;99.90
64226;DHT22;50545;56.064;26.178;2024-01-25T10:47:49;2.50;99.90
64226;DHT22;50545;56.064;26.178;2024-01-25T10:50:18;2.40;99.90
64226;DHT22;50545;56.064;26.178;2024-01-25T10:52:46;2.40;99.90
64226;DHT22;50545;56.064;26.178;2024-01-25T10:55:15;2.40;99.90
64226;DHT22;50545;56.064;26.178;2024-01-25T10:57:45;2.40;99.90
64226;DHT22;50545;56.064;26.178;2024-01-25T11:00:14;2.40;99.90
64226;DHT22;50545;56.064;26.178;2024-01-25T11:02:44;2.40;99.90
64226;DHT22;50545;56.064;26.178;2024-01-25T11:05:14;2.40;99.90
64226;DHT22;50545;56.064;26.178;2024-01-25T11:07:47;2.40;99.90
64226;DHT22;50545;56.064;26.178;2024-01-25T11:10:22;2.40;99.90
64226;DHT22;50545;56.064;26.178;2024-01-25T11:12:58;2.40;99.90
64226;DHT22;50545;56.064;26.178;2024-01-25T11:15:34;2.40;99.90
64226;DHT22;50545;56.064;26.178;2024-01-25T11:18:03;2.30;99.90
64226;DHT22;50545;56.064;26.178;2024-01-25T11:20:35;2.30;99.90
64226;DHT22;50545;56.064;26.178;2024-01-25T11:23:05;2.30;99.90
64226;DHT22;50545;56.064;26.178;2024-01-25T11:25:34;2.30;99.90
64226;DHT22;50545;56.064;26.178;2024-01-25T11:28:03;2.30;99.90
64226;DHT22;50545;56.064;26.178;2024-01-25T11:30:33;2.20;99.90
64226;DHT22;50545;56.064;26.178;2024-01-25T11:33:04;2.30;99.90
64226;DHT22;50545;56.064;26.178;2024-01-25T11:35:33;2.20;99.90
64226;DHT22;50545;56.064;26.178;2024-01-25T11:38:01;2.20;99.90
64226;DHT22;50545;56.064;26.178;2024-01-25T11:40:29;2.20;99.90
64226;DHT22;50545;56.064;26.178;2024-01-25T11:43:05;2.20;99.90
64226;DHT22;50545;56.064;26.178;2024-01-25T11:45:39;2.20;99.90
64226;DHT22;50545;56.064;26.178;2024-01-25T11:48:10;2.20;99.90
64226;DHT22;50545;56.064;26.178;2024-01-25T11:50:38;2.20;99.90
64226;DHT22;50545;56.064;26.178;2024-01-25T11:53:08;2.20;99.90
64226;DHT22;50545;56.064;26.178;2024-01-25T11:55:36;2.20;99.90
64226;DHT22;50545;56.064;26.178;2024-01-25T11:58:04;2.20;99.90
64226;DHT22;50545;56.064;26.178;2024-01-25T12:00:32;2.30;99.90
64226;DHT22;50545;56.064;26.178;2024-01-25T12:03:00;2.20;99.90
64226;DHT22;50545;56.064;26.178;2024-01-25T12:05:29;2.30;99.90
64226;DHT22;50545;56.064;26.178;2024-01-25T12:07:57;2.30;99.90
64226;DHT22;50545;56.064;26.178;2024-01-25T12:10:24;2.30;99.90
64226;DHT22;50545;56.064;26.178;2024-01-25T12:12:53;2.30;99.90
64226;DHT22;50545;56.064;26.178;2024-01-25T12:15:22;2.30;99.90
64226;DHT22;50545;56.064;26.178;2024-01-25T12:17:50;2.30;99.90
64226;DHT22;50545;56.064;26.178;2024-01-25T12:20:17;2.30;99.90
64226;DHT22;50545;56.064;26.178;2024-01-25T12:22:48;2.20;99.90
64226;DHT22;50545;56.064;26.178;2024-01-25T12:25:16;2.20;99.90
64226;DHT22;50545;56.064;26.178;2024-01-25T12:27:43;2.20;99.90
64226;DHT22;50545;56.064;26.178;2024-01-25T12:30:14;2.20;99.90
64226;DHT22;50545;56.064;26.178;2024-01-25T12:32:41;2.10;99.90
64226;DHT22;50545;56.064;26.178;2024-01-25T12:35:09;2.10;99.90
64226;DHT22;50545;56.064;26.178;2024-01-25T12:37:37;2.10;99.90
64226;DHT22;50545;56.064;26.178;2024-01-25T12:40:05;2.10;99.90
64226;DHT22;50545;56.064;26.178;2024-01-25T12:42:33;2.10;99.90
64226;DHT22;50545;56.064;26.178;2024-01-25T12:45:01;2.10;99.90
64226;DHT22;50545;56.064;26.178;2024-01-25T12:47:29;2.10;99.90
64226;DHT22;50545;56.064;26.178;2024-01-25T12:49:58;2.00;99.90
64226;DHT22;50545;56.064;26.178;2024-01-25T12:52:28;2.00;99.90
64226;DHT22;50545;56.064;26.178;2024-01-25T12:54:55;2.00;99.90
64226;DHT22;50545;56.064;26.178;2024-01-25T12:57:23;2.00;99.90
64226;DHT22;50545;56.064;26.178;2024-01-25T12:59:51;2.00;99.90
64226;DHT22;50545;56.064;26.178;2024-01-25T13:02:18;2.00;99.90
64226;DHT22;50545;56.064;26.178;2024-01-25T13:04:46;1.90;99.90
64226;DHT22;50545;56.064;26.178;2024-01-25T13:07:14;1.90;99.90
64226;DHT22;50545;56.064;26.178;2024-01-25T13:09:41;1.90;99.90
64226;DHT22;50545;56.064;26.178;2024-01-25T13:12:09;1.90;99.90
64226;DHT22;50545;56.064;26.178;2024-01-25T13:14:36;1.90;99.90
64226;DHT22;50545;56.064;26.178;2024-01-25T13:17:04;1.90;99.90
64226;DHT22;50545;56.064;26.178;2024-01-25T13:19:34;1.90;99.90
64226;DHT22;50545;56.064;26.178;2024-01-25T13:22:02;1.90;99.90
64226;DHT22;50545;56.064;26.178;2024-01-25T13:24:30;1.80;99.90
64226;DHT22;50545;56.064;26.178;2024-01-25T13:26:57;1.80;99.90
64226;DHT22;50545;56.064;26.178;2024-01-25T13:29:24;1.80;99.90
64226;DHT22;50545;56.064;26.178;2024-01-25T13:31:52;1.80;99.90
64226;DHT22;50545;56.064;26.178;2024-01-25T13:34:19;1.80;99.90
64226;DHT22;50545;56.064;26.178;2024-01-25T13:36:47;1.70;99.90
64226;DHT22;50545;56.064;26.178;2024-01-25T13:39:15;1.70;99.90
64226;DHT22;50545;56.064;26.178;2024-01-25T13:41:42;1.70;99.90
64226;DHT22;50545;56.064;26.178;2024-01-25T13:44:10;1.60;99.90
64226;DHT22;50545;56.064;26.178;2024-01-25T13:46:37;1.60;99.90
64226;DHT22;50545;56.064;26.178;2024-01-25T13:49:05;1.50;99.90
64226;DHT22;50545;56.064;26.178;2024-01-25T13:51:32;1.50;99.90
64226;DHT22;50545;56.064;26.178;2024-01-25T13:54:00;1.50;99.90
64226;DHT22;50545;56.064;26.178;2024-01-25T13:56:27;1.50;99.90
64226;DHT22;50545;56.064;26.178;2024-01-25T13:58:55;1.50;99.90
64226;DHT22;50545;56.064;26.178;2024-01-25T14:01:23;1.50;99.90
64226;DHT22;50545;56.064;26.178;2024-01-25T14:03:50;1.50;99.90
64226;DHT22;50545;56.064;26.178;2024-01-25T14:06:19;1.50;99.90
64226;DHT22;50545;56.064;26.178;2024-01-25T14:08:46;1.50;99.90
64226;DHT22;50545;56.064;26.178;2024-01-25T14:11:15;1.50;99.90
64226;DHT22;50545;56.064;26.178;2024-01-25T14:13:43;1.50;99.90
64226;DHT22;50545;56.064;26.178;2024-01-25T14:16:11;1.50;99.90
64226;DHT22;50545;56.064;26.178;2024-01-25T14:18:45;1.50;99.90
64226;DHT22;50545;56.064;26.178;2024-01-25T14:21:13;1.50;99.90
64226;DHT22;50545;56.064;26.178;2024-01-25T14:23:42;1.50;99.90
64226;DHT22;50545;56.064;26.178;2024-01-25T14:26:10;1.50;99.90
64226;DHT22;50545;56.064;26.178;2024-01-25T14:28:38;1.60;99.90
64226;DHT22;50545;56.064;26.178;2024-01-25T14:31:05;1.60;99.90
64226;DHT22;50545;56.064;26.178;2024-01-25T14:33:34;1.60;99.90
64226;DHT22;50545;56.064;26.178;2024-01-25T14:36:01;1.60;99.90
64226;DHT22;50545;56.064;26.178;2024-01-25T14:38:30;1.60;99.90
64226;DHT22;50545;56.064;26.178;2024-01-25T14:40:59;1.50;99.90
64226;DHT22;50545;56.064;26.178;2024-01-25T14:43:28;1.50;99.90
64226;DHT22;50545;56.064;26.178;2024-01-25T14:45:56;1.40;99.90
64226;DHT22;50545;56.064;26.178;2024-01-25T14:48:23;1.40;99.90
64226;DHT22;50545;56.064;26.178;2024-01-25T14:50:51;1.40;99.90
64226;DHT22;50545;56.064;26.178;2024-01-25T14:53:19;1.40;99.90
64226;DHT22;50545;56.064;26.178;2024-01-25T14:55:47;1.30;99.90
64226;DHT22;50545;56.064;26.178;2024-01-25T14:58:14;1.30;99.90
64226;DHT22;50545;56.064;26.178;2024-01-25T15:00:50;1.30;99.90
64226;DHT22;50545;56.064;26.178;2024-01-25T15:03:19;1.30;99.90
64226;DHT22;50545;56.064;26.178;2024-01-25T15:05:47;1.20;99.90
64226;DHT22;50545;56.064;26.178;2024-01-25T15:08:14;1.20;99.90
64226;DHT22;50545;56.064;26.178;2024-01-25T15:10:42;1.10;99.90
64226;DHT22;50545;56.064;26.178;2024-01-25T15:13:09;1.10;99.90
64226;DHT22;50545;56.064;26.178;2024-01-25T15:15:37;1.00;99.90
64226;DHT22;50545;56.064;26.178;2024-01-25T15:18:04;1.00;99.90
64226;DHT22;50545;56.064;26.178;2024-01-25T15:20:32;1.00;99.90
64226;DHT22;50545;56.064;26.178;2024-01-25T15:23:03;1.00;99.90
64226;DHT22;50545;56.064;26.178;2024-01-25T15:25:30;1.00;99.90
64226;DHT22;50545;56.064;26.178;2024-01-25T15:27:58;1.00;99.90
64226;DHT22;50545;56.064;26.178;2024-01-25T15:30:26;0.90;99.90
64226;DHT22;50545;56.064;26.178;2024-01-25T15:32:53;1.00;99.90
64226;DHT22;50545;56.064;26.178;2024-01-25T15:35:21;0.90;99.90